sensor_id;sensor_type;location;lat;lon;timestamp;temperature;humidity
25504;DHT22;13410;52.114;5.718;2023-05-14T00:01:13;16.90;99.90
25504;DHT22;13410;52.114;5.718;2023-05-14T00:03:38;16.90;99.90
25504;DHT22;13410;52.114;5.718;2023-05-14T00:06:06;17.20;99.90
25504;DHT22;13410;52.114;5.718;2023-05-14T00:08:32;17.10;99.90
25504;DHT22;13410;52.114;5.718;2023-05-14T00:10:58;17.10;99.90
25504;DHT22;13410;52.114;5.718;2023-05-14T00:13:24;17.30;99.90
25504;DHT22;13410;52.114;5.718;2023-05-14T00:15:50;16.80;99.90
25504;DHT22;13410;52.114;5.718;2023-05-14T00:18:16;16.60;99.90
25504;DHT22;13410;52.114;5.718;2023-05-14T00:20:41;16.50;99.90
25504;DHT22;13410;52.114;5.718;2023-05-14T00:23:07;16.50;99.90
25504;DHT22;13410;52.114;5.718;2023-05-14T00:25:33;16.50;99.90
25504;DHT22;13410;52.114;5.718;2023-05-14T00:27:58;16.50;99.90
25504;DHT22;13410;52.114;5.718;2023-05-14T00:30:24;16.60;99.90
25504;DHT22;13410;52.114;5.718;2023-05-14T00:32:49;16.60;99.90
25504;DHT22;13410;52.114;5.718;2023-05-14T00:35:15;16.80;99.90
25504;DHT22;13410;52.114;5.718;2023-05-14T00:37:41;17.00;99.90
25504;DHT22;13410;52.114;5.718;2023-05-14T00:40:07;16.80;99.90
25504;DHT22;13410;52.114;5.718;2023-05-14T00:42:33;17.10;99.90
25504;DHT22;13410;52.114;5.718;2023-05-14T00:44:59;17.00;99.90
25504;DHT22;13410;52.114;5.718;2023-05-14T00:47:25;17.00;99.90
25504;DHT22;13410;52.114;5.718;2023-05-14T00:49:51;16.80;99.90
25504;DHT22;13410;52.114;5.718;2023-05-14T00:52:17;16.60;99.90
25504;DHT22;13410;52.114;5.718;2023-05-14T00:54:44;16.50;99.90
25504;DHT22;13410;52.114;5.718;2023-05-14T00:57:11;16.60;99.90
25504;DHT22;13410;52.114;5.718;2023-05-14T00:59:36;16.40;99.90
25504;DHT22;13410;52.114;5.718;2023-05-14T01:02:05;16.50;99.90
25504;DHT22;13410;52.114;5.718;2023-05-14T01:04:30;16.60;99.90
25504;DHT22;13410;52.114;5.718;2023-05-14T01:07:20;16.80;99.90
25504;DHT22;13410;52.114;5.718;2023-05-14T01:09:58;16.70;99.90
25504;DHT22;13410;52.114;5.718;2023-05-14T01:12:32;16.70;99.90
25504;DHT22;13410;52.114;5.718;2023-05-14T01:15:01;16.60;99.90
25504;DHT22;13410;52.114;5.718;2023-05-14T01:17:32;16.50;99.90
25504;DHT22;13410;52.114;5.718;2023-05-14T01:19:58;16.60;99.90
25504;DHT22;13410;52.114;5.718;2023-05-14T01:22:24;16.60;99.90
25504;DHT22;13410;52.114;5.718;2023-05-14T01:24:50;16.60;99.90
25504;DHT22;13410;52.114;5.718;2023-05-14T01:27:24;16.40;99.90
25504;DHT22;13410;52.114;5.718;2023-05-14T01:30:30;16.30;99.90
25504;DHT22;13410;52.114;5.718;2023-05-14T01:33:01;16.30;99.90
25504;DHT22;13410;52.114;5.718;2023-05-14T01:35:29;16.40;99.90
25504;DHT22;13410;52.114;5.718;2023-05-14T01:38:03;16.20;99.90
25504;DHT22;13410;52.114;5.718;2023-05-14T01:40:31;16.20;99.90
25504;DHT22;13410;52.114;5.718;2023-05-14T01:42:58;16.30;99.90
25504;DHT22;13410;52.114;5.718;2023-05-14T01:45:25;16.00;99.90
25504;DHT22;13410;52.114;5.718;2023-05-14T01:47:51;16.00;99.90
25504;DHT22;13410;52.114;5.718;2023-05-14T01:50:17;16.30;99.90
25504;DHT22;13410;52.114;5.718;2023-05-14T01:52:43;16.50;99.90
25504;DHT22;13410;52.114;5.718;2023-05-14T01:55:08;16.20;99.90
25504;DHT22;13410;52.114;5.718;2023-05-14T01:57:34;16.30;99.90
25504;DHT22;13410;52.114;5.718;2023-05-14T02:00:00;16.40;99.90
25504;DHT22;13410;52.114;5.718;2023-05-14T02:02:26;16.30;99.90
25504;DHT22;13410;52.114;5.718;2023-05-14T02:04:51;16.20;99.90
25504;DHT22;13410;52.114;5.718;2023-05-14T02:07:17;16.20;99.90
25504;DHT22;13410;52.114;5.718;2023-05-14T02:09:43;16.00;99.90
25504;DHT22;13410;52.114;5.718;2023-05-14T02:12:09;15.90;99.90
25504;DHT22;13410;52.114;5.718;2023-05-14T02:14:36;15.70;99.90
25504;DHT22;13410;52.114;5.718;2023-05-14T02:17:01;15.50;99.90
25504;DHT22;13410;52.114;5.718;2023-05-14T02:19:28;15.60;99.90
25504;DHT22;13410;52.114;5.718;2023-05-14T02:21:53;15.50;99.90
25504;DHT22;13410;52.114;5.718;2023-05-14T02:24:19;15.20;99.90
25504;DHT22;13410;52.114;5.718;2023-05-14T02:26:45;15.10;99.90
25504;DHT22;13410;52.114;5.718;2023-05-14T02:29:11;15.10;99.90
25504;DHT22;13410;52.114;5.718;2023-05-14T02:31:37;15.30;99.90
25504;DHT22;13410;52.114;5.718;2023-05-14T02:34:03;15.40;99.90
25504;DHT22;13410;52.114;5.718;2023-05-14T02:36:30;15.30;99.90
25504;DHT22;13410;52.114;5.718;2023-05-14T02:38:58;15.10;99.90
25504;DHT22;13410;52.114;5.718;2023-05-14T02:41:24;15.30;99.90
25504;DHT22;13410;52.114;5.718;2023-05-14T02:43:50;15.10;99.90
25504;DHT22;13410;52.114;5.718;2023-05-14T02:46:16;15.10;99.90
25504;DHT22;13410;52.114;5.718;2023-05-14T02:48:41;15.10;99.90
25504;DHT22;13410;52.114;5.718;2023-05-14T02:51:07;14.90;99.90
25504;DHT22;13410;52.114;5.718;2023-05-14T02:53:32;15.20;99.90
25504;DHT22;13410;52.114;5.718;2023-05-14T02:55:58;15.40;99.90
25504;DHT22;13410;52.114;5.718;2023-05-14T02:58:24;15.40;99.90
25504;DHT22;13410;52.114;5.718;2023-05-14T03:00:50;15.20;99.90
25504;DHT22;13410;52.114;5.718;2023-05-14T03:03:17;15.00;99.90
25504;DHT22;13410;52.114;5.718;2023-05-14T03:05:42;15.00;99.90
25504;DHT22;13410;52.114;5.718;2023-05-14T03:08:08;14.80;99.90
25504;DHT22;13410;52.114;5.718;2023-05-14T03:10:34;15.00;99.90
25504;DHT22;13410;52.114;5.718;2023-05-14T03:12:59;15.00;99.90
25504;DHT22;13410;52.114;5.718;2023-05-14T03:15:25;14.90;99.90
25504;DHT22;13410;52.114;5.718;2023-05-14T03:17:51;15.00;99.90
25504;DHT22;13410;52.114;5.718;2023-05-14T03:20:17;14.90;99.90
25504;DHT22;13410;52.114;5.718;2023-05-14T03:22:42;14.80;99.90
25504;DHT22;13410;52.114;5.718;2023-05-14T03:25:08;14.90;99.90
25504;DHT22;13410;52.114;5.718;2023-05-14T03:27:34;14.90;99.90
25504;DHT22;13410;52.114;5.718;2023-05-14T03:29:59;14.90;99.90
25504;DHT22;13410;52.114;5.718;2023-05-14T03:32:25;15.00;99.90
25504;DHT22;13410;52.114;5.718;2023-05-14T03:34:51;15.30;99.90
25504;DHT22;13410;52.114;5.718;2023-05-14T03:37:16;15.10;99.90
25504;DHT22;13410;52.114;5.718;2023-05-14T03:39:42;15.10;99.90
25504;DHT22;13410;52.114;5.718;2023-05-14T03:42:07;15.40;99.90
25504;DHT22;13410;52.114;5.718;2023-05-14T03:44:33;15.30;99.90
25504;DHT22;13410;52.114;5.718;2023-05-14T03:46:59;15.40;99.90
25504;DHT22;13410;52.114;5.718;2023-05-14T03:49:24;15.10;99.90
25504;DHT22;13410;52.114;5.718;2023-05-14T03:51:50;15.00;99.90
25504;DHT22;13410;52.114;5.718;2023-05-14T03:54:16;14.90;99.90
25504;DHT22;13410;52.114;5.718;2023-05-14T03:56:41;15.00;99.90
25504;DHT22;13410;52.114;5.718;2023-05-14T03:59:07;15.10;99.90
25504;DHT22;13410;52.114;5.718;2023-05-14T04:01:33;14.90;99.90
25504;DHT22;13410;52.114;5.718;2023-05-14T04:03:58;14.50;99.90
25504;DHT22;13410;52.114;5.718;2023-05-14T04:06:24;14.70;99.90
25504;DHT22;13410;52.114;5.718;2023-05-14T04:08:50;14.60;99.90
25504;DHT22;13410;52.114;5.718;2023-05-14T04:11:15;14.40;99.90
25504;DHT22;13410;52.114;5.718;2023-05-14T04:13:41;14.50;99.90
25504;DHT22;13410;52.114;5.718;2023-05-14T04:16:07;14.40;99.90
25504;DHT22;13410;52.114;5.718;2023-05-14T04:18:33;14.60;99.90
25504;DHT22;13410;52.114;5.718;2023-05-14T04:21:00;14.80;99.90
25504;DHT22;13410;52.114;5.718;2023-05-14T04:23:26;14.90;99.90
25504;DHT22;13410;52.114;5.718;2023-05-14T04:25:52;14.90;99.90
25504;DHT22;13410;52.114;5.718;2023-05-14T04:28:17;14.90;99.90
25504;DHT22;13410;52.114;5.718;2023-05-14T04:30:43;14.90;99.90
25504;DHT22;13410;52.114;5.718;2023-05-14T04:33:10;14.90;99.90
25504;DHT22;13410;52.114;5.718;2023-05-14T04:35:35;15.30;99.90
25504;DHT22;13410;52.114;5.718;2023-05-14T04:38:01;15.50;99.90
25504;DHT22;13410;52.114;5.718;2023-05-14T04:40:27;15.50;99.90
25504;DHT22;13410;52.114;5.718;2023-05-14T04:42:53;15.60;99.90
25504;DHT22;13410;52.114;5.718;2023-05-14T04:45:19;15.40;99.90
25504;DHT22;13410;52.114;5.718;2023-05-14T04:47:45;15.10;99.90
25504;DHT22;13410;52.114;5.718;2023-05-14T04:50:11;15.30;99.90
25504;DHT22;13410;52.114;5.718;2023-05-14T04:52:37;15.30;99.90
25504;DHT22;13410;52.114;5.718;2023-05-14T04:55:03;15.60;99.90
25504;DHT22;13410;52.114;5.718;2023-05-14T04:57:29;15.60;99.90
25504;DHT22;13410;52.114;5.718;2023-05-14T04:59:55;15.90;99.90
25504;DHT22;13410;52.114;5.718;2023-05-14T05:02:20;16.10;99.90
25504;DHT22;13410;52.114;5.718;2023-05-14T05:04:46;15.80;99.90
25504;DHT22;13410;52.114;5.718;2023-05-14T05:07:12;15.30;99.90
25504;DHT22;13410;52.114;5.718;2023-05-14T05:09:41;15.50;99.90
25504;DHT22;13410;52.114;5.718;2023-05-14T05:12:07;15.70;99.90
25504;DHT22;13410;52.114;5.718;2023-05-14T05:14:33;15.90;99.90
25504;DHT22;13410;52.114;5.718;2023-05-14T05:16:59;16.20;99.90
25504;DHT22;13410;52.114;5.718;2023-05-14T05:19:24;16.30;99.90
25504;DHT22;13410;52.114;5.718;2023-05-14T05:21:50;16.70;99.90
25504;DHT22;13410;52.114;5.718;2023-05-14T05:24:16;17.10;99.90
25504;DHT22;13410;52.114;5.718;2023-05-14T05:26:42;17.10;99.90
25504;DHT22;13410;52.114;5.718;2023-05-14T05:29:10;17.70;99.90
25504;DHT22;13410;52.114;5.718;2023-05-14T05:31:36;18.10;99.90
25504;DHT22;13410;52.114;5.718;2023-05-14T05:34:02;18.10;99.90
25504;DHT22;13410;52.114;5.718;2023-05-14T05:36:28;18.40;99.90
25504;DHT22;13410;52.114;5.718;2023-05-14T05:38:54;18.50;99.90
25504;DHT22;13410;52.114;5.718;2023-05-14T05:41:21;18.90;99.90
25504;DHT22;13410;52.114;5.718;2023-05-14T05:43:46;19.20;99.90
25504;DHT22;13410;52.114;5.718;2023-05-14T05:46:12;19.50;99.90
25504;DHT22;13410;52.114;5.718;2023-05-14T05:48:38;19.20;99.90
25504;DHT22;13410;52.114;5.718;2023-05-14T05:51:03;19.00;99.90
25504;DHT22;13410;52.114;5.718;2023-05-14T05:53:29;18.80;99.90
25504;DHT22;13410;52.114;5.718;2023-05-14T05:55:55;18.50;99.90
25504;DHT22;13410;52.114;5.718;2023-05-14T05:58:20;18.20;99.90
25504;DHT22;13410;52.114;5.718;2023-05-14T06:00:47;17.80;99.90
25504;DHT22;13410;52.114;5.718;2023-05-14T06:03:13;17.90;99.90
25504;DHT22;13410;52.114;5.718;2023-05-14T06:05:39;18.00;99.90
25504;DHT22;13410;52.114;5.718;2023-05-14T06:08:05;18.10;99.90
25504;DHT22;13410;52.114;5.718;2023-05-14T06:10:32;18.30;99.90
25504;DHT22;13410;52.114;5.718;2023-05-14T06:12:58;18.30;99.90
25504;DHT22;13410;52.114;5.718;2023-05-14T06:15:24;18.50;99.90
25504;DHT22;13410;52.114;5.718;2023-05-14T06:17:50;18.10;99.90
25504;DHT22;13410;52.114;5.718;2023-05-14T06:20:15;17.80;99.90
25504;DHT22;13410;52.114;5.718;2023-05-14T06:22:41;17.90;99.90
25504;DHT22;13410;52.114;5.718;2023-05-14T06:25:07;17.60;99.90
25504;DHT22;13410;52.114;5.718;2023-05-14T06:27:46;18.00;99.90
25504;DHT22;13410;52.114;5.718;2023-05-14T06:30:12;18.40;99.90
25504;DHT22;13410;52.114;5.718;2023-05-14T06:32:38;18.30;99.90
25504;DHT22;13410;52.114;5.718;2023-05-14T06:35:05;18.40;99.90
25504;DHT22;13410;52.114;5.718;2023-05-14T06:37:31;18.60;99.90
25504;DHT22;13410;52.114;5.718;2023-05-14T06:39:58;19.30;99.90
25504;DHT22;13410;52.114;5.718;2023-05-14T06:42:23;19.50;99.90
25504;DHT22;13410;52.114;5.718;2023-05-14T06:44:50;19.70;99.90
25504;DHT22;13410;52.114;5.718;2023-05-14T06:47:16;19.80;99.90
25504;DHT22;13410;52.114;5.718;2023-05-14T06:49:42;20.10;99.90
25504;DHT22;13410;52.114;5.718;2023-05-14T06:52:09;20.20;99.90
25504;DHT22;13410;52.114;5.718;2023-05-14T06:54:35;20.40;99.90
25504;DHT22;13410;52.114;5.718;2023-05-14T06:57:00;20.40;99.90
25504;DHT22;13410;52.114;5.718;2023-05-14T06:59:26;21.10;99.90
25504;DHT22;13410;52.114;5.718;2023-05-14T07:01:52;21.80;99.90
25504;DHT22;13410;52.114;5.718;2023-05-14T07:04:20;22.20;99.90
25504;DHT22;13410;52.114;5.718;2023-05-14T07:06:50;22.60;99.90
25504;DHT22;13410;52.114;5.718;2023-05-14T07:09:16;23.60;99.90
25504;DHT22;13410;52.114;5.718;2023-05-14T07:11:42;24.20;99.90
25504;DHT22;13410;52.114;5.718;2023-05-14T07:14:07;24.90;99.90
25504;DHT22;13410;52.114;5.718;2023-05-14T07:16:33;25.40;99.90
25504;DHT22;13410;52.114;5.718;2023-05-14T07:18:59;25.40;99.90
25504;DHT22;13410;52.114;5.718;2023-05-14T07:21:27;25.70;99.90
25504;DHT22;13410;52.114;5.718;2023-05-14T07:23:53;25.60;99.90
25504;DHT22;13410;52.114;5.718;2023-05-14T07:26:19;25.10;99.90
25504;DHT22;13410;52.114;5.718;2023-05-14T07:28:48;25.10;99.90
25504;DHT22;13410;52.114;5.718;2023-05-14T07:31:20;24.80;99.90
25504;DHT22;13410;52.114;5.718;2023-05-14T07:33:46;24.90;99.90
25504;DHT22;13410;52.114;5.718;2023-05-14T07:36:30;24.30;99.90
25504;DHT22;13410;52.114;5.718;2023-05-14T07:39:03;23.90;99.90
25504;DHT22;13410;52.114;5.718;2023-05-14T07:41:35;23.30;99.90
25504;DHT22;13410;52.114;5.718;2023-05-14T07:44:03;22.70;99.90
25504;DHT22;13410;52.114;5.718;2023-05-14T07:46:31;22.70;99.90
25504;DHT22;13410;52.114;5.718;2023-05-14T07:49:09;22.50;99.90
25504;DHT22;13410;52.114;5.718;2023-05-14T07:51:37;22.10;99.90
25504;DHT22;13410;52.114;5.718;2023-05-14T08:00:56;22.10;99.90
25504;DHT22;13410;52.114;5.718;2023-05-14T08:03:22;21.60;99.90
25504;DHT22;13410;52.114;5.718;2023-05-14T08:05:50;21.70;99.90
25504;DHT22;13410;52.114;5.718;2023-05-14T08:15:07;22.20;99.90
25504;DHT22;13410;52.114;5.718;2023-05-14T08:17:33;22.20;99.90
25504;DHT22;13410;52.114;5.718;2023-05-14T08:19:59;22.00;99.90
25504;DHT22;13410;52.114;5.718;2023-05-14T08:22:26;22.20;99.90
25504;DHT22;13410;52.114;5.718;2023-05-14T08:24:51;22.30;99.90
25504;DHT22;13410;52.114;5.718;2023-05-14T08:27:17;22.20;99.90
25504;DHT22;13410;52.114;5.718;2023-05-14T08:30:18;22.00;99.90
25504;DHT22;13410;52.114;5.718;2023-05-14T08:32:43;22.20;99.90
25504;DHT22;13410;52.114;5.718;2023-05-14T08:35:35;21.90;99.90
25504;DHT22;13410;52.114;5.718;2023-05-14T08:41:58;21.50;99.90
25504;DHT22;13410;52.114;5.718;2023-05-14T08:45:00;22.00;99.90
25504;DHT22;13410;52.114;5.718;2023-05-14T08:51:33;22.50;99.90
25504;DHT22;13410;52.114;5.718;2023-05-14T08:57:26;22.60;99.90
25504;DHT22;13410;52.114;5.718;2023-05-14T08:59:53;22.50;99.90
25504;DHT22;13410;52.114;5.718;2023-05-14T09:02:28;22.30;99.90
25504;DHT22;13410;52.114;5.718;2023-05-14T09:04:58;22.20;99.90
25504;DHT22;13410;52.114;5.718;2023-05-14T09:07:24;22.40;99.90
25504;DHT22;13410;52.114;5.718;2023-05-14T09:09:51;22.90;99.90
25504;DHT22;13410;52.114;5.718;2023-05-14T09:12:17;23.30;99.90
25504;DHT22;13410;52.114;5.718;2023-05-14T09:14:44;23.40;99.90
25504;DHT22;13410;52.114;5.718;2023-05-14T09:17:10;23.50;99.90
25504;DHT22;13410;52.114;5.718;2023-05-14T09:19:42;23.60;99.90
25504;DHT22;13410;52.114;5.718;2023-05-14T09:22:18;23.80;99.90
25504;DHT22;13410;52.114;5.718;2023-05-14T09:25:06;24.00;99.90
25504;DHT22;13410;52.114;5.718;2023-05-14T09:27:47;24.10;99.90
25504;DHT22;13410;52.114;5.718;2023-05-14T09:30:16;24.10;99.90
25504;DHT22;13410;52.114;5.718;2023-05-14T09:32:42;24.40;99.90
25504;DHT22;13410;52.114;5.718;2023-05-14T09:35:28;24.60;99.90
25504;DHT22;13410;52.114;5.718;2023-05-14T09:37:54;24.50;99.90
25504;DHT22;13410;52.114;5.718;2023-05-14T09:40:21;24.40;99.90
25504;DHT22;13410;52.114;5.718;2023-05-14T09:42:48;24.30;99.90
25504;DHT22;13410;52.114;5.718;2023-05-14T09:45:46;24.30;99.90
25504;DHT22;13410;52.114;5.718;2023-05-14T09:48:17;23.90;99.90
25504;DHT22;13410;52.114;5.718;2023-05-14T09:51:28;23.90;99.90
25504;DHT22;13410;52.114;5.718;2023-05-14T09:54:14;24.30;99.90
25504;DHT22;13410;52.114;5.718;2023-05-14T09:56:46;24.60;99.90
25504;DHT22;13410;52.114;5.718;2023-05-14T09:59:12;24.60;99.90
25504;DHT22;13410;52.114;5.718;2023-05-14T10:05:12;24.50;99.90
25504;DHT22;13410;52.114;5.718;2023-05-14T10:07:49;24.80;99.90
25504;DHT22;13410;52.114;5.718;2023-05-14T10:10:19;24.90;99.90
25504;DHT22;13410;52.114;5.718;2023-05-14T10:13:19;25.20;99.90
25504;DHT22;13410;52.114;5.718;2023-05-14T10:15:55;25.60;99.90
25504;DHT22;13410;52.114;5.718;2023-05-14T10:18:22;25.90;99.90
25504;DHT22;13410;52.114;5.718;2023-05-14T10:21:10;26.30;99.90
25504;DHT22;13410;52.114;5.718;2023-05-14T10:26:15;26.40;99.90
25504;DHT22;13410;52.114;5.718;2023-05-14T10:28:42;26.20;99.90
25504;DHT22;13410;52.114;5.718;2023-05-14T10:31:09;25.60;99.90
25504;DHT22;13410;52.114;5.718;2023-05-14T10:33:48;25.40;99.90
25504;DHT22;13410;52.114;5.718;2023-05-14T10:36:17;25.60;99.90
25504;DHT22;13410;52.114;5.718;2023-05-14T10:38:44;25.70;99.90
25504;DHT22;13410;52.114;5.718;2023-05-14T10:41:13;25.60;99.90
25504;DHT22;13410;52.114;5.718;2023-05-14T10:43:42;25.70;99.90
25504;DHT22;13410;52.114;5.718;2023-05-14T10:46:11;25.70;99.90
25504;DHT22;13410;52.114;5.718;2023-05-14T10:48:40;25.60;99.90
25504;DHT22;13410;52.114;5.718;2023-05-14T10:51:10;25.40;99.90
25504;DHT22;13410;52.114;5.718;2023-05-14T10:53:41;25.60;99.90
25504;DHT22;13410;52.114;5.718;2023-05-14T10:56:09;25.90;99.90
25504;DHT22;13410;52.114;5.718;2023-05-14T10:58:40;26.00;99.90
25504;DHT22;13410;52.114;5.718;2023-05-14T11:01:09;25.70;99.90
25504;DHT22;13410;52.114;5.718;2023-05-14T11:03:45;25.80;99.90
25504;DHT22;13410;52.114;5.718;2023-05-14T11:06:13;26.00;99.90
25504;DHT22;13410;52.114;5.718;2023-05-14T11:08:39;25.90;99.90
25504;DHT22;13410;52.114;5.718;2023-05-14T11:11:06;25.90;99.90
25504;DHT22;13410;52.114;5.718;2023-05-14T11:13:32;25.60;99.90
25504;DHT22;13410;52.114;5.718;2023-05-14T11:16:01;25.60;99.90
25504;DHT22;13410;52.114;5.718;2023-05-14T11:18:31;25.60;99.90
25504;DHT22;13410;52.114;5.718;2023-05-14T11:21:06;25.50;99.90
25504;DHT22;13410;52.114;5.718;2023-05-14T11:23:33;25.60;99.90
25504;DHT22;13410;52.114;5.718;2023-05-14T11:25:58;25.80;99.90
25504;DHT22;13410;52.114;5.718;2023-05-14T11:28:26;26.00;99.90
25504;DHT22;13410;52.114;5.718;2023-05-14T11:30:52;25.90;99.90
25504;DHT22;13410;52.114;5.718;2023-05-14T11:33:21;25.70;99.90
25504;DHT22;13410;52.114;5.718;2023-05-14T11:35:58;26.00;99.90
25504;DHT22;13410;52.114;5.718;2023-05-14T11:38:27;26.30;99.90
25504;DHT22;13410;52.114;5.718;2023-05-14T11:40:54;26.70;99.90
25504;DHT22;13410;52.114;5.718;2023-05-14T11:43:20;26.70;99.90
25504;DHT22;13410;52.114;5.718;2023-05-14T11:45:52;26.70;99.90
25504;DHT22;13410;52.114;5.718;2023-05-14T11:48:22;26.80;99.90
25504;DHT22;13410;52.114;5.718;2023-05-14T11:50:49;26.80;99.90
25504;DHT22;13410;52.114;5.718;2023-05-14T11:53:28;26.70;99.90
25504;DHT22;13410;52.114;5.718;2023-05-14T11:55:55;26.80;99.90
25504;DHT22;13410;52.114;5.718;2023-05-14T11:58:24;26.20;99.90
25504;DHT22;13410;52.114;5.718;2023-05-14T12:01:06;26.10;99.90
25504;DHT22;13410;52.114;5.718;2023-05-14T12:03:39;26.00;99.90
25504;DHT22;13410;52.114;5.718;2023-05-14T12:06:05;26.00;99.90
25504;DHT22;13410;52.114;5.718;2023-05-14T12:08:32;25.40;99.90
25504;DHT22;13410;52.114;5.718;2023-05-14T12:10:59;25.30;99.90
25504;DHT22;13410;52.114;5.718;2023-05-14T12:13:31;25.50;99.90
25504;DHT22;13410;52.114;5.718;2023-05-14T12:16:02;25.80;99.90
25504;DHT22;13410;52.114;5.718;2023-05-14T12:18:30;25.80;99.90
25504;DHT22;13410;52.114;5.718;2023-05-14T12:21:01;25.90;99.90
25504;DHT22;13410;52.114;5.718;2023-05-14T12:23:32;26.10;99.90
25504;DHT22;13410;52.114;5.718;2023-05-14T12:26:02;26.30;99.90
25504;DHT22;13410;52.114;5.718;2023-05-14T12:28:30;26.40;99.90
25504;DHT22;13410;52.114;5.718;2023-05-14T12:30:57;26.40;99.90
25504;DHT22;13410;52.114;5.718;2023-05-14T12:33:23;26.30;99.90
25504;DHT22;13410;52.114;5.718;2023-05-14T12:35:51;26.40;99.90
25504;DHT22;13410;52.114;5.718;2023-05-14T12:38:21;26.40;99.90
25504;DHT22;13410;52.114;5.718;2023-05-14T12:41:02;26.50;99.90
25504;DHT22;13410;52.114;5.718;2023-05-14T12:43:47;26.40;99.90
25504;DHT22;13410;52.114;5.718;2023-05-14T12:46:14;25.90;99.90
25504;DHT22;13410;52.114;5.718;2023-05-14T12:48:40;25.90;99.90
25504;DHT22;13410;52.114;5.718;2023-05-14T12:51:16;26.10;99.90
25504;DHT22;13410;52.114;5.718;2023-05-14T12:53:42;26.20;99.90
25504;DHT22;13410;52.114;5.718;2023-05-14T12:56:10;26.50;99.90
25504;DHT22;13410;52.114;5.718;2023-05-14T12:58:38;26.70;99.90
25504;DHT22;13410;52.114;5.718;2023-05-14T13:01:12;26.70;99.90
25504;DHT22;13410;52.114;5.718;2023-05-14T13:03:43;27.00;99.90
25504;DHT22;13410;52.114;5.718;2023-05-14T13:06:09;27.00;99.90
25504;DHT22;13410;52.114;5.718;2023-05-14T13:08:35;26.90;99.90
25504;DHT22;13410;52.114;5.718;2023-05-14T13:11:01;27.20;99.90
25504;DHT22;13410;52.114;5.718;2023-05-14T13:13:32;27.10;99.90
25504;DHT22;13410;52.114;5.718;2023-05-14T13:16:00;26.50;99.90
25504;DHT22;13410;52.114;5.718;2023-05-14T13:18:29;26.20;99.90
25504;DHT22;13410;52.114;5.718;2023-05-14T13:24:18;26.50;99.90
25504;DHT22;13410;52.114;5.718;2023-05-14T13:26:52;26.40;99.90
25504;DHT22;13410;52.114;5.718;2023-05-14T13:29:35;26.50;99.90
25504;DHT22;13410;52.114;5.718;2023-05-14T13:32:01;26.50;99.90
25504;DHT22;13410;52.114;5.718;2023-05-14T13:34:38;26.60;99.90
25504;DHT22;13410;52.114;5.718;2023-05-14T13:37:04;26.30;99.90
25504;DHT22;13410;52.114;5.718;2023-05-14T13:39:29;26.30;99.90
25504;DHT22;13410;52.114;5.718;2023-05-14T13:41:55;26.40;99.90
25504;DHT22;13410;52.114;5.718;2023-05-14T13:44:21;26.40;99.90
25504;DHT22;13410;52.114;5.718;2023-05-14T13:46:47;26.40;99.90
25504;DHT22;13410;52.114;5.718;2023-05-14T13:49:15;26.40;99.90
25504;DHT22;13410;52.114;5.718;2023-05-14T13:51:40;26.60;99.90
25504;DHT22;13410;52.114;5.718;2023-05-14T13:54:06;26.70;99.90
25504;DHT22;13410;52.114;5.718;2023-05-14T13:56:32;26.70;99.90
25504;DHT22;13410;52.114;5.718;2023-05-14T13:58:58;26.60;99.90
25504;DHT22;13410;52.114;5.718;2023-05-14T14:01:23;26.20;99.90
25504;DHT22;13410;52.114;5.718;2023-05-14T14:03:49;26.20;99.90
25504;DHT22;13410;52.114;5.718;2023-05-14T14:06:16;26.00;99.90
25504;DHT22;13410;52.114;5.718;2023-05-14T14:08:42;26.10;99.90
25504;DHT22;13410;52.114;5.718;2023-05-14T14:11:07;26.30;99.90
25504;DHT22;13410;52.114;5.718;2023-05-14T14:13:33;26.20;99.90
25504;DHT22;13410;52.114;5.718;2023-05-14T14:15:58;25.70;99.90
25504;DHT22;13410;52.114;5.718;2023-05-14T14:18:24;25.60;99.90
25504;DHT22;13410;52.114;5.718;2023-05-14T14:20:49;25.50;99.90
25504;DHT22;13410;52.114;5.718;2023-05-14T14:23:15;25.30;99.90
25504;DHT22;13410;52.114;5.718;2023-05-14T14:25:41;25.50;99.90
25504;DHT22;13410;52.114;5.718;2023-05-14T14:28:06;25.30;99.90
25504;DHT22;13410;52.114;5.718;2023-05-14T14:30:32;24.90;99.90
25504;DHT22;13410;52.114;5.718;2023-05-14T14:32:57;24.90;99.90
25504;DHT22;13410;52.114;5.718;2023-05-14T14:35:25;24.80;99.90
25504;DHT22;13410;52.114;5.718;2023-05-14T14:37:51;25.00;99.90
25504;DHT22;13410;52.114;5.718;2023-05-14T14:40:18;24.90;99.90
25504;DHT22;13410;52.114;5.718;2023-05-14T14:42:44;24.70;99.90
25504;DHT22;13410;52.114;5.718;2023-05-14T14:45:10;24.50;99.90
25504;DHT22;13410;52.114;5.718;2023-05-14T14:47:36;24.40;99.90
25504;DHT22;13410;52.114;5.718;2023-05-14T14:50:02;24.60;99.90
25504;DHT22;13410;52.114;5.718;2023-05-14T14:52:27;24.70;99.90
25504;DHT22;13410;52.114;5.718;2023-05-14T14:54:54;24.80;99.90
25504;DHT22;13410;52.114;5.718;2023-05-14T14:57:20;24.50;99.90
25504;DHT22;13410;52.114;5.718;2023-05-14T14:59:46;24.20;99.90
25504;DHT22;13410;52.114;5.718;2023-05-14T15:02:12;24.10;99.90
25504;DHT22;13410;52.114;5.718;2023-05-14T15:04:38;24.10;99.90
25504;DHT22;13410;52.114;5.718;2023-05-14T15:07:03;24.00;99.90
25504;DHT22;13410;52.114;5.718;2023-05-14T15:09:29;23.90;99.90
25504;DHT22;13410;52.114;5.718;2023-05-14T15:11:55;24.20;99.90
25504;DHT22;13410;52.114;5.718;2023-05-14T15:14:21;24.20;99.90
25504;DHT22;13410;52.114;5.718;2023-05-14T15:16:47;24.10;99.90
25504;DHT22;13410;52.114;5.718;2023-05-14T15:19:13;24.20;99.90
25504;DHT22;13410;52.114;5.718;2023-05-14T15:21:38;24.40;99.90
25504;DHT22;13410;52.114;5.718;2023-05-14T15:24:04;24.50;99.90
25504;DHT22;13410;52.114;5.718;2023-05-14T15:26:30;24.50;99.90
25504;DHT22;13410;52.114;5.718;2023-05-14T15:28:58;24.40;99.90
25504;DHT22;13410;52.114;5.718;2023-05-14T15:31:23;24.70;99.90
25504;DHT22;13410;52.114;5.718;2023-05-14T15:33:50;24.60;99.90
25504;DHT22;13410;52.114;5.718;2023-05-14T15:36:16;24.50;99.90
25504;DHT22;13410;52.114;5.718;2023-05-14T15:38:42;24.50;99.90
25504;DHT22;13410;52.114;5.718;2023-05-14T15:41:07;24.40;99.90
25504;DHT22;13410;52.114;5.718;2023-05-14T15:43:33;24.60;99.90
25504;DHT22;13410;52.114;5.718;2023-05-14T15:45:58;24.30;99.90
25504;DHT22;13410;52.114;5.718;2023-05-14T15:48:24;24.20;99.90
25504;DHT22;13410;52.114;5.718;2023-05-14T15:50:51;24.10;99.90
25504;DHT22;13410;52.114;5.718;2023-05-14T15:53:17;24.00;99.90
25504;DHT22;13410;52.114;5.718;2023-05-14T15:55:43;24.10;99.90
25504;DHT22;13410;52.114;5.718;2023-05-14T15:58:09;24.20;99.90
25504;DHT22;13410;52.114;5.718;2023-05-14T16:00:34;24.30;99.90
25504;DHT22;13410;52.114;5.718;2023-05-14T16:03:00;24.20;99.90
25504;DHT22;13410;52.114;5.718;2023-05-14T16:05:26;24.30;99.90
25504;DHT22;13410;52.114;5.718;2023-05-14T16:07:51;24.30;99.90
25504;DHT22;13410;52.114;5.718;2023-05-14T16:10:19;24.40;99.90